createdAt,value
2016-11-08T00:00:14.562Z,83.94
2016-11-08T00:01:25.000Z,83.94
2016-11-08T00:02:35.443Z,84.42
2016-11-08T00:03:46.367Z,85.19
2016-11-08T00:05:11.347Z,85.09
2016-11-08T00:06:21.890Z,84.99
2016-11-08T00:09:11.854Z,84.7
2016-11-08T00:10:37.067Z,85.19
2016-11-08T00:11:47.505Z,84.32
2016-11-08T00:12:57.944Z,84.61
2016-11-08T00:14:08.424Z,84.52
2016-11-08T00:15:18.955Z,84.32
2016-11-08T00:16:29.689Z,84.52
2016-11-08T00:17:40.215Z,84.42
2016-11-08T00:18:50.749Z,84.61
2016-11-08T00:20:01.291Z,84.42
2016-11-08T00:21:11.825Z,84.99
2016-11-08T00:22:22.464Z,84.99
2016-11-08T00:24:58.097Z,84.9
2016-11-08T00:26:08.636Z,84.9
2016-11-08T00:27:19.167Z,84.99
2016-11-08T00:28:29.801Z,84.8
2016-11-08T00:29:40.833Z,84.52
2016-11-08T00:31:05.889Z,84.22
2016-11-08T00:32:16.423Z,84.61
2016-11-08T00:33:27.156Z,84.61
2016-11-08T00:34:37.689Z,84.8
2016-11-08T00:36:02.745Z,84.42
2016-11-08T00:37:13.277Z,84.32
2016-11-08T00:38:38.333Z,83.94
2016-11-08T00:40:03.388Z,83.94
2016-11-08T00:41:13.958Z,84.03
2016-11-08T00:42:24.529Z,84.12
2016-11-08T00:43:49.784Z,83.94
2016-11-08T00:45:14.839Z,84.12
2016-11-08T00:46:25.374Z,83.94
2016-11-08T00:47:35.906Z,83.94
2016-11-08T00:48:46.440Z,83.74
2016-11-08T00:49:57.044Z,83.84
2016-11-08T00:51:22.100Z,84.03
2016-11-08T00:52:32.633Z,83.84
2016-11-08T00:53:43.166Z,84.32
2016-11-08T00:54:53.895Z,84.22
2016-11-08T00:56:04.427Z,83.84
2016-11-08T00:57:14.959Z,83.94
2016-11-08T00:58:25.527Z,84.03
2016-11-08T00:59:36.064Z,84.12
2016-11-08T01:00:46.830Z,83.94
2016-11-08T01:03:22.426Z,84.03
2016-11-08T01:04:32.954Z,83.55
2016-11-08T01:05:43.483Z,83.55
2016-11-08T01:06:54.011Z,83.36
2016-11-08T01:08:04.544Z,83.45
2016-11-08T01:09:15.086Z,83.36
2016-11-08T01:10:40.165Z,83.45
2016-11-08T01:13:15.855Z,84.03
2016-11-08T01:14:26.391Z,83.99
2016-11-08T01:15:36.926Z,83.7
2016-11-08T01:16:47.462Z,83.99
2016-11-08T01:17:58.005Z,83.99
2016-11-08T01:19:08.540Z,84.28
2016-11-08T01:20:19.070Z,84.56
2016-11-08T01:21:29.601Z,84.38
2016-11-08T01:24:19.823Z,84.38
2016-11-08T01:25:30.350Z,84.09
2016-11-08T01:26:40.884Z,84.28
2016-11-08T01:28:20.410Z,84.47
2016-11-08T01:30:55.791Z,84.66
2016-11-08T01:32:06.204Z,84.18
2016-11-08T01:33:16.620Z,84.38
2016-11-08T01:34:27.032Z,84.47
2016-11-08T01:35:37.451Z,84.38
2016-11-08T01:36:47.867Z,84.38
2016-11-08T01:38:12.830Z,84.28
2016-11-08T01:39:23.279Z,84.86
2016-11-08T01:40:33.697Z,84.66
2016-11-08T01:41:44.108Z,83.99
2016-11-08T01:42:54.521Z,84.18
2016-11-08T01:44:04.970Z,84.18
2016-11-08T01:45:15.866Z,84.09
2016-11-08T01:46:26.279Z,84.18
2016-11-08T01:47:36.696Z,83.8
2016-11-08T01:48:47.147Z,83.99
2016-11-08T01:49:57.761Z,84.18
2016-11-08T01:51:08.656Z,83.89
2016-11-08T01:52:19.076Z,83.99
2016-11-08T01:53:29.484Z,84.28
2016-11-08T01:54:54.478Z,84.18
2016-11-08T01:56:04.925Z,84.47
2016-11-08T01:57:15.365Z,83.89
2016-11-08T01:58:25.780Z,84.09
2016-11-08T01:59:36.196Z,83.89
2016-11-08T02:00:46.805Z,83.99
2016-11-08T02:01:57.220Z,84.28
2016-11-08T02:03:07.632Z,83.8
2016-11-08T02:04:18.081Z,84.18
2016-11-08T02:05:28.495Z,83.89
2016-11-08T02:06:39.115Z,83.99
2016-11-08T02:07:49.527Z,83.99
2016-11-08T02:08:59.938Z,83.99
2016-11-08T02:10:10.356Z,83.26
2016-11-08T02:11:20.778Z,83.84
2016-11-08T02:12:31.393Z,83.8
2016-11-08T02:13:41.810Z,83.99
2016-11-08T02:14:52.216Z,83.61
2016-11-08T02:16:02.627Z,84.18
2016-11-08T02:17:13.044Z,83.8
2016-11-08T02:18:23.656Z,83.99
2016-11-08T02:19:34.069Z,84.09
2016-11-08T02:20:44.482Z,84.09
2016-11-08T02:21:54.892Z,83.99
2016-11-08T02:23:05.305Z,84.38
2016-11-08T02:24:15.826Z,84.56
2016-11-08T02:25:26.241Z,84.66
2016-11-08T02:26:36.662Z,84.47
2016-11-08T02:27:47.557Z,84.38
2016-11-08T02:28:57.971Z,84.18
2016-11-08T02:30:23.620Z,84.09
2016-11-08T02:31:34.038Z,84.95
2016-11-08T02:32:58.999Z,84.76
2016-11-08T02:34:09.450Z,84.95
2016-11-08T02:35:20.185Z,84.76
2016-11-08T02:36:30.751Z,84.56
2016-11-08T02:37:41.283Z,84.66
2016-11-08T02:38:51.817Z,85.05
2016-11-08T02:40:02.346Z,85.05
2016-11-08T02:41:12.878Z,85.14
2016-11-08T02:42:23.413Z,84.86
2016-11-08T02:43:33.943Z,84.86
2016-11-08T02:44:44.474Z,85.14
2016-11-08T02:45:55.002Z,85.05
2016-11-08T02:47:05.741Z,85.53
2016-11-08T02:48:16.272Z,85.05
2016-11-08T02:49:41.332Z,85.63
2016-11-08T02:50:51.866Z,85.34
2016-11-08T02:52:02.396Z,85.43
2016-11-08T02:53:12.928Z,85.24
2016-11-08T02:54:23.457Z,85.43
2016-11-08T02:55:33.997Z,85.82
2016-11-08T02:56:44.530Z,85.53
2016-11-08T02:57:55.263Z,85.97
2016-11-08T02:59:05.792Z,85.97
2016-11-08T03:00:30.848Z,86.07
2016-11-08T03:01:41.412Z,86.55
2016-11-08T03:02:51.983Z,86.74
2016-11-08T03:04:02.614Z,86.26
2016-11-08T03:05:13.175Z,86.35
2016-11-08T03:06:23.742Z,86.55
2016-11-08T03:07:34.272Z,86.55
2016-11-08T03:08:45.002Z,86.93
2016-11-08T03:09:55.531Z,86.74
2016-11-08T03:11:06.066Z,86.93
2016-11-08T03:12:16.599Z,86.74
2016-11-08T03:13:27.133Z,86.74
2016-11-08T03:14:37.767Z,86.93
2016-11-08T03:15:48.302Z,87.22
2016-11-08T03:16:58.932Z,87.32
2016-11-08T03:18:24.483Z,87.6
2016-11-08T03:19:35.014Z,88.14
2016-11-08T03:20:45.779Z,88.43
2016-11-08T03:22:10.834Z,88.81
2016-11-08T03:23:21.368Z,88.71
2016-11-08T03:24:31.934Z,88.71
2016-11-08T03:25:42.670Z,88.71
2016-11-08T03:26:53.204Z,88.53
2016-11-08T03:28:04.264Z,88.81
2016-11-08T03:29:14.791Z,89.2
2016-11-08T03:30:25.366Z,88.91
2016-11-08T03:31:35.945Z,88.33
2016-11-08T03:32:46.474Z,88.43
2016-11-08T03:33:57.007Z,88.33
2016-11-08T03:35:07.540Z,88.53
2016-11-08T03:36:18.176Z,88.57
2016-11-08T03:37:28.749Z,88.24
2016-11-08T03:38:53.807Z,88.53
2016-11-08T03:40:04.306Z,88.43
2016-11-08T03:41:14.718Z,88.71
2016-11-08T03:42:25.232Z,88.71
2016-11-08T03:43:35.653Z,88.81
2016-11-08T03:44:46.067Z,88.71
2016-11-08T03:45:56.477Z,88.53
2016-11-08T03:47:06.992Z,88.81
2016-11-08T03:48:17.403Z,89.49
2016-11-08T03:49:27.851Z,89.2
2016-11-08T03:50:38.396Z,90.16
2016-11-08T03:51:49.451Z,89.58
2016-11-08T03:53:00.178Z,89.97
2016-11-08T03:54:10.714Z,89.68
2016-11-08T03:56:46.796Z,89.29
2016-11-08T03:57:57.825Z,89.39
2016-11-08T03:59:08.357Z,89.1
2016-11-08T04:00:18.889Z,89.01
2016-11-08T04:01:29.465Z,89.49
2016-11-08T04:02:40.006Z,89.2
2016-11-08T04:03:50.541Z,89.29
2016-11-08T04:05:01.070Z,89.49
2016-11-08T04:06:11.604Z,89.39
2016-11-08T04:07:22.136Z,89.49
2016-11-08T04:08:32.666Z,89.49
2016-11-08T04:09:43.299Z,89.58
2016-11-08T04:10:53.828Z,89.2
2016-11-08T04:12:04.365Z,89.58
2016-11-08T04:14:54.514Z,89.2
2016-11-08T04:16:04.927Z,89.78
2016-11-08T04:17:15.345Z,89.58
2016-11-08T04:18:25.758Z,89.2
2016-11-08T04:19:36.172Z,89.49
2016-11-08T04:20:46.785Z,89.29
2016-11-08T04:21:57.201Z,89.39
2016-11-08T04:23:07.623Z,89.29
2016-11-08T04:24:18.039Z,89.49
2016-11-08T04:25:28.452Z,89.29
2016-11-08T04:26:38.965Z,89.39
2016-11-08T04:27:49.375Z,89.68
2016-11-08T04:29:00.272Z,89.29
2016-11-08T04:30:10.687Z,89.58
2016-11-08T04:31:21.102Z,89.68
2016-11-08T04:32:31.615Z,89.49
2016-11-08T04:33:42.024Z,89.68
2016-11-08T04:34:52.436Z,89.68
2016-11-08T04:36:02.848Z,89.29
2016-11-08T04:37:13.268Z,89.29
2016-11-08T04:38:23.778Z,89.78
2016-11-08T04:39:34.190Z,89.97
2016-11-08T04:40:44.614Z,90.21
2016-11-08T04:41:55.024Z,90.16
2016-11-08T04:43:05.474Z,90.16
2016-11-08T04:44:16.086Z,89.58
2016-11-08T04:45:26.500Z,89.2
2016-11-08T04:46:36.927Z,89.68
2016-11-08T04:47:47.333Z,89.58
2016-11-08T04:48:57.779Z,89.78
2016-11-08T04:50:08.341Z,89.68
2016-11-08T04:51:18.876Z,89.49
2016-11-08T04:52:29.455Z,89.49
2016-11-08T04:53:39.982Z,89.49
2016-11-08T04:54:50.514Z,89.58
2016-11-08T04:56:01.076Z,89.68
2016-11-08T04:57:11.605Z,89.58
2016-11-08T04:58:22.165Z,89.87
2016-11-08T04:59:32.692Z,90.26
2016-11-08T05:00:43.223Z,90.26
2016-11-08T05:01:53.753Z,89.87
2016-11-08T05:04:29.377Z,90.02
2016-11-08T05:05:39.911Z,89.78
2016-11-08T05:06:50.446Z,90.31
2016-11-08T05:08:01.182Z,90.5
2016-11-08T05:09:11.751Z,90.41
2016-11-08T05:10:22.282Z,90.21
2016-11-08T05:11:32.814Z,90.5
2016-11-08T05:12:43.481Z,90.59
2016-11-08T05:13:54.008Z,90.31
2016-11-08T05:15:04.539Z,90.5
2016-11-08T05:16:15.078Z,90.79
2016-11-08T05:17:25.604Z,90.69
2016-11-08T05:18:36.135Z,90.59
2016-11-08T05:19:46.664Z,90.5
2016-11-08T05:20:57.689Z,90.41
2016-11-08T05:22:08.225Z,90.69
2016-11-08T05:23:19.256Z,90.59
2016-11-08T05:24:29.891Z,90.59
2016-11-08T05:25:40.422Z,90.5
2016-11-08T05:26:50.956Z,90.5
2016-11-08T05:28:01.488Z,90.59
2016-11-08T05:29:11.985Z,90.59
2016-11-08T05:30:22.625Z,90.31
2016-11-08T05:31:33.062Z,90.5
2016-11-08T05:32:43.502Z,90.59
2016-11-08T05:33:53.943Z,90.5
2016-11-08T05:35:04.872Z,90.69
2016-11-08T05:36:15.997Z,90.59
2016-11-08T05:37:26.477Z,90.41
2016-11-08T05:38:36.915Z,90.41
2016-11-08T05:39:47.352Z,90.41
2016-11-08T05:40:57.792Z,90.31
2016-11-08T05:42:08.330Z,90.02
2016-11-08T05:43:18.764Z,90.59
2016-11-08T05:44:29.208Z,90.5
2016-11-08T05:45:39.645Z,90.69
2016-11-08T05:46:50.085Z,90.5
2016-11-08T05:48:00.624Z,90.89
2016-11-08T05:49:11.064Z,90.5
2016-11-08T05:50:21.504Z,90.31
2016-11-08T05:51:31.979Z,90.31
2016-11-08T05:52:42.418Z,89.92
2016-11-08T05:53:52.892Z,90.02
2016-11-08T05:55:03.825Z,90.31
2016-11-08T05:56:14.231Z,90.69
2016-11-08T05:57:24.555Z,90.5
2016-11-08T05:58:34.877Z,90.31
2016-11-08T05:59:45.399Z,90.41
2016-11-08T06:00:55.718Z,90.31
2016-11-08T06:02:06.041Z,90.31
2016-11-08T06:03:16.360Z,90.12
2016-11-08T06:04:26.726Z,90.41
2016-11-08T06:05:37.146Z,90.41
2016-11-08T06:06:47.497Z,90.31
2016-11-08T06:07:57.817Z,90.5
2016-11-08T06:09:08.139Z,90.31
2016-11-08T06:10:18.479Z,90.31
2016-11-08T06:11:28.999Z,90.5
2016-11-08T06:12:39.354Z,90.69
2016-11-08T06:13:49.674Z,90.79
2016-11-08T06:14:59.993Z,90.12
2016-11-08T06:16:10.315Z,90.41
2016-11-08T06:17:20.734Z,90.69
2016-11-08T06:18:31.051Z,90.69
2016-11-08T06:19:41.411Z,90.5
2016-11-08T06:20:51.731Z,90.59
2016-11-08T06:22:02.053Z,90.41
2016-11-08T06:23:12.374Z,90.98
2016-11-08T06:24:22.697Z,91.17
2016-11-08T06:25:33.829Z,91.17
2016-11-08T06:26:44.155Z,91.17
2016-11-08T06:27:54.474Z,91.27
2016-11-08T06:29:04.996Z,90.98
2016-11-08T06:30:15.312Z,90.69
2016-11-08T06:31:25.634Z,90.5
2016-11-08T06:32:35.954Z,90.69
2016-11-08T06:33:46.320Z,90.59
2016-11-08T06:34:56.738Z,90.5
2016-11-08T06:36:07.576Z,91.08
2016-11-08T06:37:17.898Z,91.36
2016-11-08T06:38:28.700Z,92.23
2016-11-08T06:39:39.052Z,92.96
2016-11-08T06:40:49.370Z,94.01
2016-11-08T06:41:59.699Z,94.01
2016-11-08T06:43:10.018Z,94.59
2016-11-08T06:44:20.338Z,94.88
2016-11-08T06:45:30.660Z,95.07
2016-11-08T06:46:40.985Z,95.07
2016-11-08T06:48:05.874Z,95.55
2016-11-08T06:49:16.193Z,95.45
2016-11-08T06:50:26.513Z,95.17
2016-11-08T06:51:36.836Z,95.94
2016-11-08T06:52:47.158Z,95.75
2016-11-08T06:53:57.515Z,95.45
2016-11-08T06:55:07.832Z,95.55
2016-11-08T06:56:18.156Z,95.94
2016-11-08T06:57:28.473Z,95.65
2016-11-08T06:58:38.874Z,95.75
2016-11-08T06:59:49.284Z,95.45
2016-11-08T07:00:59.695Z,95.75
2016-11-08T07:02:24.659Z,95.55
2016-11-08T07:03:35.069Z,95.75
2016-11-08T07:04:45.484Z,95.75
2016-11-08T07:06:10.450Z,95.65
2016-11-08T07:07:20.867Z,96.13
2016-11-08T07:08:31.476Z,95.65
2016-11-08T07:09:41.890Z,95.94
2016-11-08T07:10:52.301Z,95.94
2016-11-08T07:12:02.710Z,95.55
2016-11-08T07:13:13.347Z,94.88
2016-11-08T07:14:23.761Z,95.55
2016-11-08T07:15:34.176Z,95.84
2016-11-08T07:16:44.587Z,95.55
2016-11-08T07:18:09.547Z,95.75
2016-11-08T07:19:19.962Z,96.03
2016-11-08T07:20:30.377Z,95.84
2016-11-08T07:21:40.788Z,95.65
2016-11-08T07:22:51.204Z,95.36
2016-11-08T07:24:01.718Z,95.84
2016-11-08T07:25:12.129Z,95.75
2016-11-08T07:26:22.542Z,95.84
2016-11-08T07:27:32.954Z,96.03
2016-11-08T07:28:43.363Z,96.03
2016-11-08T07:29:53.973Z,95.75
2016-11-08T07:31:04.384Z,95.75
2016-11-08T07:32:14.797Z,96.03
2016-11-08T07:33:25.209Z,95.84
2016-11-08T07:34:35.626Z,95.84
2016-11-08T07:35:46.557Z,95.55
2016-11-08T07:36:57.059Z,95.45
2016-11-08T07:38:07.590Z,95.75
2016-11-08T07:39:18.124Z,95.26
2016-11-08T07:40:28.686Z,95.45
2016-11-08T07:41:39.421Z,95.55
2016-11-08T07:42:49.948Z,95.84
2016-11-08T07:44:00.443Z,95.84
2016-11-08T07:45:10.884Z,95.36
2016-11-08T07:46:22.302Z,95.65
2016-11-08T07:47:32.943Z,95.84
2016-11-08T07:48:43.388Z,95.65
2016-11-08T07:49:53.833Z,94.78
2016-11-08T07:51:04.273Z,95.21
2016-11-08T07:52:14.715Z,94.92
2016-11-08T07:53:25.159Z,95.17
2016-11-08T07:54:35.599Z,95.31
2016-11-08T07:55:46.039Z,94.73
2016-11-08T07:56:56.482Z,94.15
2016-11-08T07:58:06.917Z,94.25
2016-11-08T07:59:17.582Z,94.68
2016-11-08T08:00:42.598Z,94.59
2016-11-08T08:02:07.609Z,94.59
2016-11-08T08:03:18.049Z,94.98
2016-11-08T08:04:28.684Z,94.54
2016-11-08T08:05:53.669Z,95.31
2016-11-08T08:07:04.115Z,95.17
2016-11-08T08:08:14.590Z,95.07
2016-11-08T08:09:25.026Z,94.88
2016-11-08T08:12:00.651Z,95.07
2016-11-08T08:13:11.092Z,95.17
2016-11-08T08:14:21.528Z,95.17
2016-11-08T08:15:31.998Z,95.45
2016-11-08T08:16:42.437Z,95.75
2016-11-08T08:18:07.421Z,95.65
2016-11-08T08:19:17.864Z,95.75
2016-11-08T08:20:28.301Z,95.84
2016-11-08T08:21:38.738Z,94.78
2016-11-08T08:22:49.182Z,94.88
2016-11-08T08:23:59.616Z,95.07
2016-11-08T08:25:10.058Z,95.12
2016-11-08T08:26:20.526Z,94.98
2016-11-08T08:27:30.958Z,95.07
2016-11-08T08:28:41.393Z,95.07
2016-11-08T08:29:51.827Z,94.98
2016-11-08T08:31:02.260Z,95.17
2016-11-08T08:32:12.899Z,94.64
2016-11-08T08:33:23.331Z,94.83
2016-11-08T08:34:33.769Z,94.35
2016-11-08T08:35:44.206Z,94.54
2016-11-08T08:36:54.645Z,94.49
2016-11-08T08:38:05.126Z,94.54
2016-11-08T08:39:15.562Z,94.4
2016-11-08T08:40:25.995Z,94.49
2016-11-08T08:41:36.461Z,94.21
2016-11-08T08:42:46.862Z,93.82
2016-11-08T08:43:57.276Z,93.82
2016-11-08T08:45:07.622Z,93.44
2016-11-08T08:46:17.970Z,93.48
2016-11-08T08:47:42.856Z,93.1
2016-11-08T08:48:53.174Z,91.75
2016-11-08T08:50:03.493Z,91.17
2016-11-08T08:51:13.809Z,90.21
2016-11-08T08:52:24.136Z,90.31
2016-11-08T08:53:34.453Z,90.12
2016-11-08T08:54:44.973Z,89.54
2016-11-08T08:55:55.289Z,88.96
2016-11-08T08:57:05.610Z,89.25
2016-11-08T08:58:15.937Z,89.64
2016-11-08T08:59:40.824Z,89.2
2016-11-08T09:00:51.172Z,89.2
2016-11-08T09:02:01.519Z,89.1
2016-11-08T09:03:11.839Z,89.29
2016-11-08T09:04:22.167Z,89.49
2016-11-08T09:05:47.057Z,89.1
2016-11-08T09:06:57.414Z,88.62
2016-11-08T09:08:07.735Z,88.91
2016-11-08T09:09:18.056Z,88.67
2016-11-08T09:10:28.373Z,89.58
2016-11-08T09:11:38.795Z,89.39
2016-11-08T09:12:49.113Z,89.73
2016-11-08T09:13:59.470Z,89.64
2016-11-08T09:15:09.893Z,89.15
2016-11-08T09:16:20.303Z,89.06
2016-11-08T09:17:45.263Z,89.35
2016-11-08T09:18:55.677Z,89.44
2016-11-08T09:20:06.086Z,89.1
2016-11-08T09:21:16.500Z,89.35
2016-11-08T09:22:26.910Z,89.49
2016-11-08T09:23:37.351Z,89.87
2016-11-08T09:24:47.761Z,89.87
2016-11-08T09:25:58.169Z,89.78
2016-11-08T09:27:08.580Z,89.78
2016-11-08T09:28:33.583Z,89.58
2016-11-08T09:29:44.019Z,89.1
2016-11-08T09:30:54.438Z,88.81
2016-11-08T09:32:04.851Z,88.43
2016-11-08T09:33:15.463Z,88.14
2016-11-08T09:34:25.885Z,88.33
2016-11-08T09:35:36.304Z,88.04
2016-11-08T09:36:46.714Z,87.46
2016-11-08T09:37:57.805Z,88.14
2016-11-08T09:39:08.225Z,87.56
2016-11-08T09:40:18.641Z,87.85
2016-11-08T09:41:43.600Z,86.99
2016-11-08T09:43:08.563Z,87.03
2016-11-08T09:44:18.971Z,86.65
2016-11-08T09:45:29.383Z,86.74
2016-11-08T09:46:39.793Z,86.65
2016-11-08T09:47:50.208Z,86.35
2016-11-08T09:49:00.621Z,85.3
2016-11-08T09:50:11.032Z,86.07
2016-11-08T09:51:35.994Z,85
2016-11-08T09:53:00.952Z,85.14
2016-11-08T09:54:11.365Z,85.2
2016-11-08T09:55:21.884Z,84.86
2016-11-08T09:56:32.292Z,83.89
2016-11-08T09:57:42.703Z,83.31
2016-11-08T09:58:53.078Z,83.41
2016-11-08T10:00:03.401Z,84.18
2016-11-08T10:01:13.921Z,83.8
2016-11-08T10:02:24.245Z,83.03
2016-11-08T10:03:34.561Z,82.45
2016-11-08T10:04:44.880Z,82.06
2016-11-08T10:05:55.204Z,82.06
2016-11-08T10:07:05.560Z,82.26
2016-11-08T10:08:15.877Z,82.06
2016-11-08T10:09:26.203Z,82.2
2016-11-08T10:10:36.521Z,82.1
2016-11-08T10:11:46.842Z,82.01
2016-11-08T10:12:57.164Z,82.01
2016-11-08T10:14:07.481Z,81.62
2016-11-08T10:15:17.801Z,81.33
2016-11-08T10:16:42.690Z,81.52
2016-11-08T10:17:53.021Z,81.52
2016-11-08T10:19:03.340Z,81.52
2016-11-08T10:20:13.711Z,81.62
2016-11-08T10:21:24.033Z,81.52
2016-11-08T10:22:34.356Z,81.43
2016-11-08T10:23:45.151Z,81.81
2016-11-08T10:24:55.473Z,80.94
2016-11-08T10:26:05.792Z,81.43
2016-11-08T10:27:16.114Z,81.33
2016-11-08T10:28:26.435Z,80.85
2016-11-08T10:29:37.231Z,80.27
2016-11-08T10:30:47.561Z,80.18
2016-11-08T10:32:12.454Z,80.66
2016-11-08T10:33:22.777Z,80.76
2016-11-08T10:34:33.096Z,80.56
2016-11-08T10:35:43.617Z,81.33
2016-11-08T10:36:53.970Z,81.33
2016-11-08T10:38:04.287Z,81.52
2016-11-08T10:39:14.607Z,81.91
2016-11-08T10:40:24.933Z,80.76
2016-11-08T10:41:35.267Z,81.24
2016-11-08T10:43:00.153Z,81.91
2016-11-08T10:44:10.473Z,81.68
2016-11-08T10:45:20.796Z,82.35
2016-11-08T10:46:31.120Z,82.1
2016-11-08T10:47:41.439Z,81.81
2016-11-08T10:49:06.325Z,81.33
2016-11-08T10:50:16.672Z,81.04
2016-11-08T10:51:26.996Z,81.33
2016-11-08T10:52:37.315Z,80.31
2016-11-08T10:53:47.637Z,79.74
2016-11-08T10:54:57.992Z,79.93
2016-11-08T10:56:22.877Z,79.44
2016-11-08T10:57:33.337Z,79.25
2016-11-08T11:00:08.762Z,78.23
2016-11-08T11:01:19.204Z,77.75
2016-11-08T11:02:29.743Z,77.75
2016-11-08T11:03:40.181Z,78.58
2016-11-08T11:04:50.618Z,79.06
2016-11-08T11:06:01.105Z,78.29
2016-11-08T11:07:11.576Z,78.81
2016-11-08T11:08:22.019Z,78.19
2016-11-08T11:09:32.460Z,77.46
2016-11-08T11:10:42.898Z,77.46
2016-11-08T11:11:53.340Z,77.65
2016-11-08T11:13:03.778Z,77.75
2016-11-08T11:14:14.217Z,77.17
2016-11-08T11:15:24.659Z,76.5
2016-11-08T11:16:35.101Z,76.3
2016-11-08T11:17:45.573Z,76.68
2016-11-08T11:18:56.220Z,76.3
2016-11-08T11:20:21.200Z,76.4
2016-11-08T11:21:31.638Z,76.3
2016-11-08T11:22:56.620Z,76.1
2016-11-08T11:24:07.054Z,76.5
2016-11-08T11:25:17.537Z,76.4
2016-11-08T11:26:27.972Z,76.68
2016-11-08T11:27:38.408Z,76.59
2016-11-08T11:28:49.861Z,76.59
2016-11-08T11:30:14.916Z,76.59
2016-11-08T11:31:25.446Z,76.3
2016-11-08T11:32:35.977Z,76.88
2016-11-08T11:33:46.547Z,76.5
2016-11-08T11:34:57.114Z,77.36
2016-11-08T11:36:07.650Z,77.03
2016-11-08T11:37:18.184Z,77.13
2016-11-08T11:38:28.717Z,77.03
2016-11-08T11:39:39.251Z,76.45
2016-11-08T11:40:49.880Z,77.03
2016-11-08T11:42:00.409Z,76.98
2016-11-08T11:43:10.938Z,76.5
2016-11-08T11:44:21.469Z,76.68
2016-11-08T11:45:32.003Z,76.1
2016-11-08T11:46:42.823Z,75.67
2016-11-08T11:47:53.352Z,75.18
2016-11-08T11:49:04.379Z,74.79
2016-11-08T11:50:14.911Z,74.02
2016-11-08T11:51:25.443Z,73.73
2016-11-08T11:52:50.498Z,73.58
2016-11-08T11:54:01.032Z,73.48
2016-11-08T11:55:11.557Z,72.71
2016-11-08T11:56:22.087Z,72.22
2016-11-08T11:57:32.689Z,72.8
2016-11-08T11:58:43.426Z,73.09
2016-11-08T11:59:53.956Z,72.77
2016-11-08T12:01:04.492Z,73.15
2016-11-08T12:02:15.036Z,72.8
2016-11-08T12:03:25.564Z,72.61
2016-11-08T12:04:36.059Z,72.13
2016-11-08T12:05:46.508Z,71.39
2016-11-08T12:08:50.982Z,70.23
2016-11-08T12:10:01.388Z,69.84
2016-11-08T12:11:11.804Z,69.59
2016-11-08T12:12:22.227Z,68.82
2016-11-08T12:14:57.601Z,68.04
2016-11-08T12:16:08.019Z,68.17
2016-11-08T12:17:18.430Z,67.21
2016-11-08T12:18:28.844Z,67.63
2016-11-08T12:19:39.352Z,66.56
2016-11-08T12:20:49.763Z,66.3
2016-11-08T12:22:00.189Z,66.2
2016-11-08T12:23:10.631Z,65.53
2016-11-08T12:24:36.078Z,65.75
2016-11-08T12:25:46.491Z,64.3
2016-11-08T12:26:56.906Z,64.5
2016-11-08T12:28:07.321Z,63.17
2016-11-08T12:29:17.736Z,63.56
2016-11-08T12:30:28.148Z,63.4
2016-11-08T12:31:38.592Z,62.52
2016-11-08T12:32:49.004Z,62.23
2016-11-08T12:33:59.421Z,62.85
2016-11-08T12:35:09.846Z,60.32
2016-11-08T12:36:20.460Z,59.55
2016-11-08T12:37:30.880Z,59.77
2016-11-08T12:38:55.845Z,60.52
2016-11-08T12:40:06.254Z,61.39
2016-11-08T12:41:31.414Z,61.1
2016-11-08T12:42:41.830Z,61.46
2016-11-08T12:43:52.247Z,61.29
2016-11-08T12:45:02.669Z,60.71
2016-11-08T12:46:13.081Z,61.78
2016-11-08T12:47:23.595Z,60.71
2016-11-08T12:48:34.018Z,58.41
2016-11-08T12:49:44.431Z,58.54
2016-11-08T12:50:54.845Z,58.15
2016-11-08T12:52:05.261Z,59.31
2016-11-08T12:54:40.643Z,55.36
2016-11-08T12:55:51.097Z,55.75
2016-11-08T12:57:16.064Z,54.58
2016-11-08T12:58:26.477Z,54.42
2016-11-08T12:59:36.925Z,53.64
2016-11-08T13:00:47.339Z,53.64
2016-11-08T13:01:57.759Z,54.22
2016-11-08T13:03:08.210Z,55.1
2016-11-08T13:04:19.312Z,53.64
2016-11-08T13:05:29.735Z,53.45
2016-11-08T13:06:40.183Z,51.43
2016-11-08T13:08:05.156Z,50.78
2016-11-08T13:09:15.572Z,52.14
2016-11-08T13:10:26.228Z,51.92
2016-11-08T13:11:36.650Z,52.5
2016-11-08T13:13:01.618Z,51.36
2016-11-08T13:14:12.039Z,49.63
2016-11-08T13:15:22.685Z,49.24
2016-11-08T13:16:33.109Z,48
2016-11-08T13:17:43.523Z,49.07
2016-11-08T13:18:53.939Z,49.85
2016-11-08T13:20:04.360Z,48.36
2016-11-08T13:21:14.775Z,48.78
2016-11-08T13:22:39.751Z,48.95
2016-11-08T13:25:15.137Z,49.07
2016-11-08T13:26:25.555Z,49.17
2016-11-08T13:27:35.974Z,48.88
2016-11-08T13:28:46.390Z,47.44
2016-11-08T13:29:57.296Z,48.19
2016-11-08T13:31:07.707Z,47.8
2016-11-08T13:32:18.130Z,48.41
2016-11-08T13:33:28.551Z,48.29
2016-11-08T13:34:39.005Z,48.49
2016-11-08T13:35:49.424Z,49.07
2016-11-08T13:37:00.324Z,49.17
2016-11-08T13:38:10.742Z,48.39
2016-11-08T13:41:00.684Z,47.15
2016-11-08T13:42:11.305Z,46.49
2016-11-08T13:43:21.688Z,46.17
2016-11-08T13:44:32.056Z,47.25
2016-11-08T13:45:42.392Z,47.15
2016-11-08T13:46:52.715Z,45.9
2016-11-08T13:49:42.674Z,46.08
2016-11-08T13:50:53.034Z,47.13
2016-11-08T13:52:03.376Z,47.8
2016-11-08T13:53:13.709Z,47.83
2016-11-08T13:54:24.032Z,47.27
2016-11-08T13:55:34.361Z,46
2016-11-08T13:56:44.690Z,45.15
2016-11-08T13:57:55.030Z,44.29
2016-11-08T13:59:05.557Z,44.38
2016-11-08T14:00:15.886Z,44.97
2016-11-08T14:01:26.211Z,46.04
2016-11-08T14:04:01.915Z,45.34
2016-11-08T14:05:27.016Z,46.51
2016-11-08T14:06:37.345Z,46.69
2016-11-08T14:07:47.684Z,47.34
2016-11-08T14:08:58.018Z,48
2016-11-08T14:10:08.351Z,48.02
2016-11-08T14:11:33.256Z,47.25
2016-11-08T14:12:43.578Z,47.71
2016-11-08T14:13:53.911Z,47.22
2016-11-08T14:15:04.244Z,46.54
2016-11-08T14:16:14.580Z,45.98
2016-11-08T14:17:25.417Z,46.27
2016-11-08T14:18:35.752Z,45.81
2016-11-08T14:19:46.077Z,46
2016-11-08T14:20:56.611Z,45.51
2016-11-08T14:22:06.938Z,44.66
2016-11-08T14:23:17.264Z,44.48
2016-11-08T14:24:27.596Z,43.61
2016-11-08T14:25:37.921Z,43.61
2016-11-08T14:26:48.284Z,43.61
2016-11-08T14:27:58.645Z,43.85
2016-11-08T14:29:23.922Z,42.48
2016-11-08T14:30:34.345Z,42.09
2016-11-08T14:31:44.761Z,41.52
2016-11-08T14:32:55.393Z,41.33
2016-11-08T14:34:05.844Z,41.13
2016-11-08T14:35:16.413Z,41.13
2016-11-08T14:36:26.954Z,40.55
2016-11-08T14:37:38.192Z,41.42
2016-11-08T14:38:48.734Z,42.01
2016-11-08T14:39:59.276Z,42.68
2016-11-08T14:41:09.881Z,42.38
2016-11-08T14:42:34.951Z,41.89
2016-11-08T14:43:45.492Z,41.13
2016-11-08T14:44:56.033Z,40.55
2016-11-08T14:46:06.569Z,40.55
2016-11-08T14:47:17.113Z,41.21
2016-11-08T14:48:27.663Z,41.48
2016-11-08T14:49:38.203Z,41.09
2016-11-08T14:50:48.741Z,41.11
2016-11-08T14:51:59.280Z,41.21
2016-11-08T14:53:09.825Z,40.33
2016-11-08T14:54:20.394Z,41.21
2016-11-08T14:55:30.937Z,42.14
2016-11-08T14:56:56.004Z,42.8
2016-11-08T14:58:07.039Z,42.93
2016-11-08T14:59:17.587Z,43.39
2016-11-08T15:00:28.233Z,42.9
2016-11-08T15:01:38.770Z,42.22
2016-11-08T15:02:49.310Z,42.51
2016-11-08T15:03:59.846Z,42.22
2016-11-08T15:05:10.383Z,42.49
2016-11-08T15:06:35.446Z,42.98
2016-11-08T15:08:01.036Z,44.05
2016-11-08T15:09:11.580Z,43.76
2016-11-08T15:10:22.167Z,43.44
2016-11-08T15:11:47.749Z,44.62
2016-11-08T15:12:58.295Z,45.1
2016-11-08T15:14:08.745Z,44.89
2016-11-08T15:15:19.190Z,45.47
2016-11-08T15:16:29.843Z,45.08
2016-11-08T15:17:40.285Z,45.86
2016-11-08T15:18:50.732Z,45.67
2016-11-08T15:20:15.721Z,46.34
2016-11-08T15:21:26.161Z,46.34
2016-11-08T15:22:36.619Z,47.03
2016-11-08T15:23:47.058Z,46.32
2016-11-08T15:25:12.047Z,46.42
2016-11-08T15:26:22.502Z,47.08
2016-11-08T15:27:47.420Z,46.98
2016-11-08T15:29:12.346Z,46.69
2016-11-08T15:30:22.678Z,47.3
2016-11-08T15:31:33.003Z,46.25
2016-11-08T15:32:43.331Z,47.32
2016-11-08T15:34:08.701Z,46.54
2016-11-08T15:35:19.024Z,46.34
2016-11-08T15:36:29.347Z,46.73
2016-11-08T15:37:39.876Z,47.22
2016-11-08T15:38:50.201Z,47.34
2016-11-08T15:40:00.562Z,46.93
2016-11-08T15:41:10.899Z,47.13
2016-11-08T15:42:21.258Z,46.44
2016-11-08T15:43:31.582Z,47.22
2016-11-08T15:44:41.949Z,47.13
2016-11-08T15:47:17.167Z,46.25
2016-11-08T15:48:27.511Z,46.34
2016-11-08T15:49:37.834Z,46.05
2016-11-08T15:50:48.165Z,46.34
2016-11-08T15:51:58.486Z,46.15
2016-11-08T15:53:08.815Z,46.25
2016-11-08T15:55:44.554Z,45.37
2016-11-08T15:56:54.878Z,44.98